チェンナイ の空港の天気 - METARとTAF

チェンナイ国際空港 ( VOMM / MAA ) - インド チェンナイ
飛行場実況気象(Metar)
観測時間06/25 14:00 IST (06/25 08:30 UTC)
風向・風速南西 5m/s
視程7000m
天気現象
少しの雲 雲底高度 610m
全天の4割程度の雲 雲底高度 3050m
気温35℃
湿度47%
気圧1002hPa
METARVOMM 250830Z 22009KT 7000 FEW020 SCT100 35/22 Q1002 NOSIG
過去の天気等 Google飛行場航空写真 Wunderground天気予報

過去48時間のMETAR

飛行場予報(TAF)
データがありません